Time;durP1;ratioP1;P1;durP2;ratioP2;P2;SDS_P1;SDS_P2;PMS_P1;PMS_P2;Temp;Humidity;BMP_temperature;BMP_pressure;BME280_temperature;BME280_humidity;BME280_pressure;Samples;Min_cycle;Max_cycle;Signal;HPM_P1;HPM_P2
2022/03/27 00:00:18;;;;;;;;;;;11.40;99.90;;;;;;5050872;28;19917;-80
2022/03/27 00:02:43;;;;;;;;;;;11.40;99.90;;;;;;5047097;28;19919;-80
2022/03/27 00:05:10;;;;;;;;;;;11.40;99.90;;;;;;5041665;28;20369;-80
2022/03/27 00:07:35;;;;;;;;;;;11.40;99.90;;;;;;5042807;28;19921;-80
2022/03/27 00:10:01;;;;;;;;;;;11.40;99.90;;;;;;5045948;28;19912;-79
2022/03/27 00:12:27;;;;;;;;;;;11.30;99.90;;;;;;5040900;28;19917;-79
2022/03/27 00:14:52;;;;;;;;;;;11.30;99.90;;;;;;5049446;28;19912;-80
2022/03/27 00:17:18;;;;;;;;;;;11.30;99.90;;;;;;5045332;28;19917;-80
2022/03/27 00:19:44;;;;;;;;;;;11.30;99.90;;;;;;5051139;28;20343;-80
2022/03/27 00:22:09;;;;;;;;;;;11.30;99.90;;;;;;5054302;28;19921;-79
2022/03/27 00:24:35;;;;;;;;;;;11.30;99.90;;;;;;5048871;28;19939;-80
2022/03/27 00:27:00;;;;;;;;;;;11.30;99.90;;;;;;5052506;28;19920;-79
2022/03/27 00:29:26;;;;;;;;;;;11.30;99.90;;;;;;5054224;28;19925;-80
2022/03/27 00:31:51;;;;;;;;;;;11.30;99.90;;;;;;5052230;28;19913;-80
2022/03/27 00:34:19;;;;;;;;;;;11.20;99.90;;;;;;5053190;28;19917;-80
2022/03/27 00:36:45;;;;;;;;;;;11.20;99.90;;;;;;5052546;28;19978;-80
2022/03/27 00:39:10;;;;;;;;;;;11.10;99.90;;;;;;5052401;28;20008;-80
2022/03/27 00:41:36;;;;;;;;;;;11.00;99.90;;;;;;5053545;28;19917;-80
2022/03/27 00:44:02;;;;;;;;;;;11.00;99.90;;;;;;5056064;28;19913;-80
2022/03/27 00:46:28;;;;;;;;;;;11.00;99.90;;;;;;5057713;28;20277;-80
2022/03/27 00:48:54;;;;;;;;;;;11.00;99.90;;;;;;5053634;28;19917;-80
2022/03/27 00:51:19;;;;;;;;;;;10.90;99.90;;;;;;5057718;28;19912;-80
2022/03/27 00:53:45;;;;;;;;;;;10.90;99.90;;;;;;5057495;28;19963;-80
2022/03/27 00:56:10;;;;;;;;;;;10.80;99.90;;;;;;5054236;28;19917;-80
2022/03/27 00:58:36;;;;;;;;;;;10.80;99.90;;;;;;5050773;28;19924;-80
2022/03/27 01:01:01;;;;;;;;;;;10.80;99.90;;;;;;5054258;28;19920;-79
2022/03/27 01:03:27;;;;;;;;;;;10.80;99.90;;;;;;5055505;28;19991;-80
2022/03/27 01:05:53;;;;;;;;;;;10.80;99.90;;;;;;5056357;28;19935;-79
2022/03/27 01:11:12;;;;;;;;;;;10.80;1.00;;;;;;5052954;28;20392;-80
2022/03/27 01:13:39;;;;;;;;;;;10.80;1.00;;;;;;5052126;28;19948;-79
2022/03/27 01:16:09;;;;;;;;;;;10.70;1.00;;;;;;5054616;28;20046;-79
2022/03/27 01:18:35;;;;;;;;;;;10.70;1.00;;;;;;5051789;28;20293;-80
2022/03/27 01:21:00;;;;;;;;;;;10.70;1.00;;;;;;5052176;28;19917;-80
2022/03/27 01:23:26;;;;;;;;;;;10.70;1.00;;;;;;5052626;28;19917;-80
2022/03/27 01:25:51;;;;;;;;;;;10.60;1.00;;;;;;5050411;28;19913;-79
2022/03/27 01:28:17;;;;;;;;;;;10.60;1.00;;;;;;5050883;28;20424;-80
2022/03/27 01:30:42;;;;;;;;;;;10.60;1.00;;;;;;5041693;28;20295;-80
2022/03/27 01:33:11;;;;;;;;;;;10.50;1.00;;;;;;5048643;28;19964;-81
2022/03/27 01:35:37;;;;;;;;;;;10.50;1.00;;;;;;5051606;28;19992;-81
2022/03/27 01:38:03;;;;;;;;;;;10.40;1.00;;;;;;5044592;28;19913;-81
2022/03/27 01:40:28;;;;;;;;;;;10.40;1.00;;;;;;5056111;28;20396;-81
2022/03/27 01:42:55;;;;;;;;;;;10.40;1.00;;;;;;5054848;28;19970;-81
2022/03/27 01:45:23;;;;;;;;;;;10.40;1.00;;;;;;5053057;28;19916;-81
2022/03/27 01:47:49;;;;;;;;;;;10.30;1.00;;;;;;5054566;28;20007;-79
2022/03/27 01:50:15;;;;;;;;;;;10.30;1.00;;;;;;5053050;28;19959;-81
2022/03/27 01:52:40;;;;;;;;;;;10.30;1.00;;;;;;5058318;28;19909;-81
2022/03/27 01:55:07;;;;;;;;;;;10.30;1.00;;;;;;5055933;28;20425;-81
2022/03/27 01:57:32;;;;;;;;;;;10.30;1.00;;;;;;5057261;28;20268;-81
2022/03/27 01:59:57;;;;;;;;;;;10.30;1.00;;;;;;5055480;28;19996;-81
2022/03/27 02:02:26;;;;;;;;;;;10.30;1.00;;;;;;5056014;28;20254;-81
2022/03/27 02:04:55;;;;;;;;;;;10.20;48.30;;;;;;5049329;28;19928;-81
2022/03/27 02:07:23;;;;;;;;;;;10.30;99.90;;;;;;5056814;28;19996;-81
2022/03/27 02:09:49;;;;;;;;;;;10.20;99.90;;;;;;5054463;28;19919;-81
2022/03/27 02:12:14;;;;;;;;;;;10.20;1.00;;;;;;5054972;28;19917;-80
2022/03/27 02:14:40;;;;;;;;;;;10.20;1.00;;;;;;5054911;28;19909;-81
2022/03/27 02:17:07;;;;;;;;;;;10.20;1.00;;;;;;5053840;28;19920;-80
2022/03/27 02:19:33;;;;;;;;;;;10.20;1.00;;;;;;5053837;28;19909;-81
2022/03/27 02:21:58;;;;;;;;;;;10.20;1.00;;;;;;5052843;28;20038;-81
2022/03/27 02:24:24;;;;;;;;;;;10.20;20.40;;;;;;5053417;28;19913;-81
2022/03/27 02:26:50;;;;;;;;;;;10.20;42.00;;;;;;5054752;28;20460;-79
2022/03/27 02:29:16;;;;;;;;;;;10.20;99.90;;;;;;5054951;28;19919;-81
2022/03/27 02:31:41;;;;;;;;;;;10.20;1.00;;;;;;5049175;28;19948;-81
2022/03/27 02:34:07;;;;;;;;;;;10.10;1.00;;;;;;5052973;28;19920;-81
2022/03/27 02:36:32;;;;;;;;;;;10.20;99.90;;;;;;5055848;28;19912;-80
2022/03/27 02:38:58;;;;;;;;;;;10.10;1.00;;;;;;5052896;28;19952;-81
2022/03/27 02:41:23;;;;;;;;;;;10.10;1.00;;;;;;5054911;28;19912;-80
2022/03/27 02:43:49;;;;;;;;;;;10.10;14.00;;;;;;5052411;28;19909;-79
2022/03/27 02:46:14;;;;;;;;;;;10.10;99.90;;;;;;5053168;28;19994;-81
2022/03/27 02:48:40;;;;;;;;;;;10.10;99.90;;;;;;5055407;28;19971;-78
2022/03/27 02:51:05;;;;;;;;;;;10.00;1.00;;;;;;5053932;28;19917;-80
2022/03/27 02:53:31;;;;;;;;;;;10.00;1.00;;;;;;5055138;28;19913;-80
2022/03/27 02:55:56;;;;;;;;;;;10.00;1.00;;;;;;5053055;28;19935;-80
2022/03/27 02:58:22;;;;;;;;;;;10.00;99.90;;;;;;5053698;28;19920;-80
2022/03/27 03:00:47;;;;;;;;;;;10.00;99.90;;;;;;5054281;28;20376;-80
2022/03/27 03:03:13;;;;;;;;;;;9.90;99.90;;;;;;5050543;28;19913;-80
2022/03/27 03:05:40;;;;;;;;;;;9.90;99.90;;;;;;5052577;28;19913;-80
2022/03/27 03:08:06;;;;;;;;;;;9.90;1.00;;;;;;5051005;28;20388;-80
2022/03/27 03:10:32;;;;;;;;;;;9.90;1.00;;;;;;5054109;28;19923;-79
2022/03/27 03:12:58;;;;;;;;;;;9.90;99.90;;;;;;5055460;28;19912;-80
2022/03/27 03:15:23;;;;;;;;;;;9.80;99.90;;;;;;5056813;28;19916;-80
2022/03/27 03:17:49;;;;;;;;;;;9.80;99.90;;;;;;5052139;28;19970;-80
2022/03/27 03:20:15;;;;;;;;;;;9.80;54.10;;;;;;5051468;28;19913;-79
2022/03/27 03:22:40;;;;;;;;;;;9.80;99.90;;;;;;5056178;28;19913;-80
2022/03/27 03:25:06;;;;;;;;;;;9.70;1.40;;;;;;5057336;28;19921;-80
2022/03/27 03:27:32;;;;;;;;;;;9.70;99.90;;;;;;5055975;28;19913;-79
2022/03/27 03:29:58;;;;;;;;;;;9.70;99.90;;;;;;5055829;28;19920;-79
2022/03/27 03:32:23;;;;;;;;;;;9.60;1.00;;;;;;5056891;28;19917;-80
2022/03/27 03:34:49;;;;;;;;;;;9.60;1.00;;;;;;5057360;28;19912;-80
2022/03/27 03:37:14;;;;;;;;;;;9.60;99.90;;;;;;5054167;28;21693;-80
2022/03/27 03:39:40;;;;;;;;;;;9.60;99.90;;;;;;5055319;28;19979;-80
2022/03/27 03:42:06;;;;;;;;;;;9.50;1.00;;;;;;5053034;28;19949;-80
2022/03/27 03:44:31;;;;;;;;;;;9.50;99.90;;;;;;5056088;28;19992;-80
2022/03/27 03:46:57;;;;;;;;;;;9.50;99.90;;;;;;5055230;28;19917;-80
2022/03/27 03:49:24;;;;;;;;;;;9.40;1.00;;;;;;5058084;28;19982;-80
2022/03/27 03:51:49;;;;;;;;;;;9.40;1.00;;;;;;5056503;28;20003;-80
2022/03/27 03:54:14;;;;;;;;;;;9.40;1.00;;;;;;5056582;28;19955;-80
2022/03/27 03:56:40;;;;;;;;;;;9.40;1.00;;;;;;5056137;28;19913;-80
2022/03/27 03:59:05;;;;;;;;;;;9.30;1.00;;;;;;5055638;28;19971;-78
2022/03/27 04:01:31;;;;;;;;;;;9.30;1.00;;;;;;5061712;28;19952;-79
2022/03/27 04:03:56;;;;;;;;;;;9.20;1.00;;;;;;5048883;28;20000;-79
2022/03/27 04:06:22;;;;;;;;;;;9.20;1.00;;;;;;5053450;28;20309;-80
2022/03/27 04:08:48;;;;;;;;;;;9.10;99.90;;;;;;5050850;28;19909;-79
2022/03/27 04:11:16;;;;;;;;;;;9.10;99.90;;;;;;5052871;28;20521;-80
2022/03/27 04:13:45;;;;;;;;;;;8.90;99.90;;;;;;5050656;28;19908;-79
2022/03/27 04:16:13;;;;;;;;;;;8.80;99.90;;;;;;5049277;28;19925;-79
2022/03/27 04:18:39;;;;;;;;;;;8.60;99.90;;;;;;5054057;28;19912;-79
2022/03/27 04:21:04;;;;;;;;;;;8.60;99.90;;;;;;5053684;28;20324;-79
2022/03/27 04:23:30;;;;;;;;;;;8.60;99.90;;;;;;5051327;28;20004;-79
2022/03/27 04:25:56;;;;;;;;;;;8.60;99.90;;;;;;5054295;28;19958;-79
2022/03/27 04:28:21;;;;;;;;;;;8.60;99.90;;;;;;5053712;28;20011;-79
2022/03/27 04:30:46;;;;;;;;;;;8.60;99.90;;;;;;5054606;28;19909;-79
2022/03/27 04:33:12;;;;;;;;;;;8.60;99.90;;;;;;5052461;28;19921;-80
2022/03/27 04:35:38;;;;;;;;;;;8.60;1.00;;;;;;5055224;28;19912;-79
2022/03/27 04:38:03;;;;;;;;;;;8.60;1.00;;;;;;5051206;28;20289;-79
2022/03/27 04:40:29;;;;;;;;;;;8.60;99.90;;;;;;5054391;28;19921;-80
2022/03/27 04:42:55;;;;;;;;;;;8.60;99.90;;;;;;5051795;28;19908;-80
2022/03/27 04:45:20;;;;;;;;;;;8.60;99.90;;;;;;5056353;28;19956;-80
2022/03/27 04:47:46;;;;;;;;;;;8.60;99.90;;;;;;5055435;28;19948;-79
2022/03/27 04:50:11;;;;;;;;;;;8.60;99.90;;;;;;5046461;28;19908;-80
2022/03/27 04:52:37;;;;;;;;;;;8.50;1.00;;;;;;5039495;28;19972;-78
2022/03/27 04:55:03;;;;;;;;;;;8.50;1.00;;;;;;5052090;28;19920;-79
2022/03/27 04:57:32;;;;;;;;;;;8.40;1.00;;;;;;5056211;28;20004;-80
2022/03/27 04:59:58;;;;;;;;;;;8.40;1.00;;;;;;5057449;28;19920;-80
2022/03/27 05:02:23;;;;;;;;;;;8.40;1.00;;;;;;5057519;28;19913;-79
2022/03/27 05:04:49;;;;;;;;;;;8.40;1.00;;;;;;5061520;28;20355;-80
2022/03/27 05:07:14;;;;;;;;;;;8.40;1.00;;;;;;5057408;28;19923;-79
2022/03/27 05:09:40;;;;;;;;;;;8.40;1.00;;;;;;5058322;28;19913;-78
2022/03/27 05:12:06;;;;;;;;;;;8.40;1.00;;;;;;5054591;28;19931;-80
2022/03/27 05:14:31;;;;;;;;;;;8.50;1.00;;;;;;5055628;28;19920;-79
2022/03/27 05:16:57;;;;;;;;;;;8.50;1.00;;;;;;5056859;28;20020;-80
2022/03/27 05:19:22;;;;;;;;;;;8.50;1.00;;;;;;5057471;28;19913;-80
2022/03/27 05:21:47;;;;;;;;;;;8.50;1.00;;;;;;5054901;28;19917;-80
2022/03/27 05:24:13;;;;;;;;;;;8.60;1.00;;;;;;5056474;28;19921;-80
2022/03/27 05:26:39;;;;;;;;;;;8.70;1.00;;;;;;5057445;28;19913;-79
2022/03/27 05:29:06;;;;;;;;;;;8.70;1.00;;;;;;5048485;28;19921;-79
2022/03/27 05:31:32;;;;;;;;;;;8.80;1.00;;;;;;5055555;28;19948;-80
2022/03/27 05:33:57;;;;;;;;;;;8.90;1.00;;;;;;5052945;28;19913;-80
2022/03/27 05:36:23;;;;;;;;;;;9.00;1.00;;;;;;5053960;28;20408;-81
2022/03/27 05:38:49;;;;;;;;;;;9.10;1.00;;;;;;5053416;28;19993;-81
2022/03/27 05:41:14;;;;;;;;;;;9.10;1.00;;;;;;5051515;28;20071;-82
2022/03/27 05:43:40;;;;;;;;;;;9.20;1.00;;;;;;5052289;28;19913;-81
2022/03/27 05:46:05;;;;;;;;;;;9.20;1.00;;;;;;5051774;28;19940;-81
2022/03/27 05:48:31;;;;;;;;;;;9.20;1.00;;;;;;5052773;28;19931;-82
2022/03/27 05:50:57;;;;;;;;;;;9.20;1.00;;;;;;5052718;28;20446;-81
2022/03/27 05:53:23;;;;;;;;;;;9.30;1.00;;;;;;5050569;28;19919;-81
2022/03/27 05:55:48;;;;;;;;;;;9.30;1.00;;;;;;5052752;28;20182;-82
2022/03/27 05:58:14;;;;;;;;;;;9.30;1.00;;;;;;5050461;28;19921;-81
2022/03/27 06:00:40;;;;;;;;;;;9.40;1.00;;;;;;5051844;28;19958;-82
2022/03/27 06:03:06;;;;;;;;;;;9.40;1.00;;;;;;5050345;28;19995;-82
2022/03/27 06:05:31;;;;;;;;;;;9.50;1.00;;;;;;5043502;28;20003;-81
2022/03/27 06:07:58;;;;;;;;;;;9.50;1.00;;;;;;5043602;28;20370;-81
2022/03/27 06:10:24;;;;;;;;;;;9.50;1.00;;;;;;5043374;28;19915;-81
2022/03/27 06:12:50;;;;;;;;;;;9.50;1.00;;;;;;5039218;28;20006;-81
2022/03/27 06:15:16;;;;;;;;;;;9.60;1.00;;;;;;5044348;28;19971;-81
2022/03/27 06:17:44;;;;;;;;;;;9.60;1.00;;;;;;5037201;28;20385;-82
2022/03/27 06:20:12;;;;;;;;;;;9.60;1.00;;;;;;5066799;28;19916;-81
2022/03/27 06:22:39;;;;;;;;;;;9.60;1.00;;;;;;5036692;28;19959;-82
2022/03/27 06:25:05;;;;;;;;;;;9.70;1.00;;;;;;5043906;28;19909;-81
2022/03/27 06:27:31;;;;;;;;;;;9.70;1.00;;;;;;5035997;28;19913;-82
2022/03/27 06:29:56;;;;;;;;;;;9.80;1.00;;;;;;5049571;28;19913;-82
2022/03/27 06:32:26;;;;;;;;;;;9.80;1.00;;;;;;5050725;28;19913;-83
2022/03/27 06:34:54;;;;;;;;;;;9.90;1.00;;;;;;5046086;28;19924;-82
2022/03/27 06:37:19;;;;;;;;;;;10.00;1.00;;;;;;5045699;28;19919;-82
2022/03/27 06:39:45;;;;;;;;;;;10.00;1.00;;;;;;5047859;28;19913;-83
2022/03/27 06:42:12;;;;;;;;;;;10.10;1.00;;;;;;5044888;28;19912;-82
2022/03/27 06:44:37;;;;;;;;;;;10.00;1.00;;;;;;5048892;28;19920;-83
2022/03/27 06:47:05;;;;;;;;;;;10.00;1.00;;;;;;5052396;28;19925;-82
2022/03/27 06:49:31;;;;;;;;;;;10.10;1.00;;;;;;5051682;28;20350;-82
2022/03/27 06:51:57;;;;;;;;;;;10.10;1.00;;;;;;5057240;28;19940;-83
2022/03/27 06:54:22;;;;;;;;;;;10.20;1.00;;;;;;5049418;28;19913;-82
2022/03/27 06:56:48;;;;;;;;;;;10.20;1.00;;;;;;5052512;28;19920;-82
2022/03/27 06:59:13;;;;;;;;;;;10.30;1.00;;;;;;5052906;28;20008;-83
2022/03/27 07:04:22;;;;;;;;;;;10.30;1.00;;;;;;5052041;28;20114;-82
2022/03/27 07:06:48;;;;;;;;;;;10.30;1.00;;;;;;5054763;28;19917;-83
2022/03/27 07:09:14;;;;;;;;;;;10.40;1.00;;;;;;5049191;28;20396;-83
2022/03/27 07:11:39;;;;;;;;;;;10.50;1.00;;;;;;5052632;28;19917;-81
2022/03/27 07:14:05;;;;;;;;;;;10.50;1.00;;;;;;5051392;28;19917;-83
2022/03/27 07:16:31;;;;;;;;;;;10.50;1.00;;;;;;5053853;28;20012;-83
2022/03/27 07:18:56;;;;;;;;;;;10.60;1.00;;;;;;5051485;28;20038;-83
2022/03/27 07:21:22;;;;;;;;;;;10.70;1.00;;;;;;5051280;28;19917;-82
2022/03/27 07:23:47;;;;;;;;;;;10.70;1.00;;;;;;5050703;28;20150;-83
2022/03/27 07:26:13;;;;;;;;;;;10.70;1.00;;;;;;5051452;28;19919;-82
2022/03/27 07:28:39;;;;;;;;;;;10.70;1.00;;;;;;5051173;28;19909;-83
2022/03/27 07:31:04;;;;;;;;;;;10.70;1.00;;;;;;5052603;28;19932;-82
2022/03/27 07:33:30;;;;;;;;;;;10.70;1.00;;;;;;5056509;28;20086;-83
2022/03/27 07:35:56;;;;;;;;;;;10.80;1.00;;;;;;5055289;28;20388;-82
2022/03/27 07:38:21;;;;;;;;;;;10.90;1.00;;;;;;5049092;28;19920;-82
2022/03/27 07:40:47;;;;;;;;;;;11.00;1.00;;;;;;5052090;28;19913;-83
2022/03/27 07:43:13;;;;;;;;;;;11.00;1.00;;;;;;5048978;28;20354;-82
2022/03/27 07:45:38;;;;;;;;;;;11.10;1.00;;;;;;5054317;28;19944;-83
2022/03/27 07:48:04;;;;;;;;;;;11.10;99.90;;;;;;5048705;28;20331;-82
2022/03/27 07:50:30;;;;;;;;;;;11.20;99.90;;;;;;5052973;28;20291;-83
2022/03/27 07:52:56;;;;;;;;;;;11.30;99.90;;;;;;5050273;28;19967;-82
2022/03/27 07:55:22;;;;;;;;;;;11.20;99.90;;;;;;5051262;28;19925;-82
2022/03/27 07:57:48;;;;;;;;;;;11.30;99.90;;;;;;5051856;28;19919;-83
2022/03/27 08:00:15;;;;;;;;;;;11.30;99.90;;;;;;5048089;28;19917;-83
2022/03/27 08:02:41;;;;;;;;;;;11.30;99.90;;;;;;5050972;28;20487;-84
2022/03/27 08:05:07;;;;;;;;;;;11.30;99.90;;;;;;5053315;28;19913;-83
2022/03/27 08:07:32;;;;;;;;;;;11.20;99.90;;;;;;5052488;28;19925;-84
2022/03/27 08:09:58;;;;;;;;;;;11.20;99.90;;;;;;5054977;28;19913;-83
2022/03/27 08:12:24;;;;;;;;;;;11.30;99.90;;;;;;5053891;28;19932;-83
2022/03/27 08:14:49;;;;;;;;;;;11.40;99.90;;;;;;5053115;28;19925;-81
2022/03/27 08:17:16;;;;;;;;;;;11.50;99.90;;;;;;5042903;28;19917;-83
2022/03/27 08:19:43;;;;;;;;;;;11.70;99.90;;;;;;5045121;28;19920;-83
2022/03/27 08:22:08;;;;;;;;;;;11.80;99.90;;;;;;5049865;28;19908;-81
2022/03/27 08:24:34;;;;;;;;;;;11.90;99.90;;;;;;5055524;28;20297;-81
2022/03/27 08:27:00;;;;;;;;;;;12.00;91.20;;;;;;5057382;28;19916;-82
2022/03/27 08:29:27;;;;;;;;;;;12.00;1.00;;;;;;5057858;28;19913;-81
2022/03/27 08:31:53;;;;;;;;;;;12.10;1.00;;;;;;5057421;28;19909;-82
2022/03/27 08:34:20;;;;;;;;;;;12.20;99.90;;;;;;5054353;28;19909;-82
2022/03/27 08:36:46;;;;;;;;;;;12.20;99.90;;;;;;5051426;28;20012;-81
2022/03/27 08:39:11;;;;;;;;;;;12.30;99.90;;;;;;5056647;28;19915;-82
2022/03/27 08:41:41;;;;;;;;;;;12.30;1.00;;;;;;5055716;28;19940;-82
2022/03/27 08:44:06;;;;;;;;;;;12.40;1.00;;;;;;5056556;28;19970;-82
2022/03/27 08:46:32;;;;;;;;;;;12.50;1.00;;;;;;5047037;28;19952;-82
2022/03/27 08:49:01;;;;;;;;;;;12.70;99.90;;;;;;5041025;28;19917;-81
2022/03/27 08:51:38;;;;;;;;;;;12.60;1.00;;;;;;5031703;28;19913;-81
2022/03/27 08:54:05;;;;;;;;;;;12.70;1.00;;;;;;5043644;28;19913;-81
2022/03/27 08:56:32;;;;;;;;;;;12.80;99.90;;;;;;5047727;28;20333;-81
2022/03/27 08:58:59;;;;;;;;;;;12.80;1.00;;;;;;5053170;28;19912;-81
2022/03/27 09:01:25;;;;;;;;;;;12.80;1.00;;;;;;5049705;28;20007;-82
2022/03/27 09:03:51;;;;;;;;;;;12.90;1.00;;;;;;5045049;28;19931;-82
2022/03/27 09:06:16;;;;;;;;;;;13.00;99.90;;;;;;5057199;28;20433;-82
2022/03/27 09:08:41;;;;;;;;;;;13.10;81.60;;;;;;5055878;28;19909;-82
2022/03/27 09:11:15;;;;;;;;;;;13.30;1.00;;;;;;5056059;28;20008;-81
2022/03/27 09:13:42;;;;;;;;;;;13.30;99.90;;;;;;5056724;28;20396;-82
2022/03/27 09:16:08;;;;;;;;;;;13.40;26.20;;;;;;5058061;28;19917;-81
2022/03/27 09:18:52;;;;;;;;;;;13.50;1.00;;;;;;5050544;28;19913;-82
2022/03/27 09:21:18;;;;;;;;;;;13.60;1.00;;;;;;5059535;28;20339;-83
2022/03/27 09:23:44;;;;;;;;;;;13.60;99.90;;;;;;5056815;28;19972;-82
2022/03/27 09:26:16;;;;;;;;;;;13.70;99.90;;;;;;5060617;28;20015;-82
2022/03/27 09:28:43;;;;;;;;;;;13.70;99.90;;;;;;5061676;28;19908;-83
2022/03/27 09:31:16;;;;;;;;;;;13.70;99.90;;;;;;5059699;28;20007;-83
2022/03/27 09:33:48;;;;;;;;;;;13.70;99.90;;;;;;5059510;28;19913;-83
2022/03/27 09:36:22;;;;;;;;;;;13.90;1.00;;;;;;5048174;28;19920;-83
2022/03/27 09:38:59;;;;;;;;;;;14.00;1.00;;;;;;5039714;28;19917;-82
2022/03/27 09:41:32;;;;;;;;;;;14.00;99.90;;;;;;5039029;28;19999;-84
2022/03/27 09:44:00;;;;;;;;;;;14.10;99.90;;;;;;5039721;28;20505;-83
2022/03/27 09:46:26;;;;;;;;;;;14.20;99.90;;;;;;5039697;28;19909;-82
2022/03/27 09:48:57;;;;;;;;;;;14.30;99.90;;;;;;5040991;28;19924;-82
2022/03/27 09:51:23;;;;;;;;;;;14.40;99.90;;;;;;5053361;28;19936;-83
2022/03/27 09:53:58;;;;;;;;;;;14.60;45.80;;;;;;5056113;28;19908;-82
2022/03/27 09:56:28;;;;;;;;;;;14.60;1.00;;;;;;5059154;28;19913;-82
2022/03/27 09:58:53;;;;;;;;;;;14.50;1.00;;;;;;5059562;28;19913;-83
2022/03/27 10:01:22;;;;;;;;;;;14.60;1.00;;;;;;5060070;28;20337;-82
2022/03/27 10:04:04;;;;;;;;;;;14.80;1.00;;;;;;5057526;28;19915;-83
2022/03/27 10:06:30;;;;;;;;;;;14.80;1.00;;;;;;5056949;28;19913;-82
2022/03/27 10:08:55;;;;;;;;;;;14.70;1.00;;;;;;5049808;28;19920;-82
2022/03/27 10:11:22;;;;;;;;;;;15.00;1.00;;;;;;5039156;28;19921;-83
2022/03/27 10:13:49;;;;;;;;;;;15.40;99.90;;;;;;5037750;28;19909;-83
2022/03/27 10:16:15;;;;;;;;;;;15.80;99.90;;;;;;5038741;28;19920;-83
2022/03/27 10:18:41;;;;;;;;;;;16.30;1.00;;;;;;5039151;28;19909;-83
2022/03/27 10:21:07;;;;;;;;;;;16.60;1.00;;;;;;5039890;28;19909;-83
2022/03/27 10:23:33;;;;;;;;;;;16.60;1.00;;;;;;5038805;28;19940;-82
2022/03/27 10:26:01;;;;;;;;;;;16.70;1.00;;;;;;5044417;28;19913;-83
2022/03/27 10:28:27;;;;;;;;;;;16.90;1.00;;;;;;5046256;28;19935;-83
2022/03/27 10:30:53;;;;;;;;;;;17.30;99.90;;;;;;5038294;28;20254;-83
2022/03/27 10:33:20;;;;;;;;;;;17.80;99.90;;;;;;5039404;28;19935;-83
2022/03/27 10:35:54;;;;;;;;;;;18.00;99.90;;;;;;5039973;28;19960;-83
2022/03/27 10:38:39;;;;;;;;;;;17.80;99.90;;;;;;5039176;28;19913;-83
2022/03/27 10:41:16;;;;;;;;;;;17.80;99.90;;;;;;5041316;28;19913;-83
2022/03/27 10:44:00;;;;;;;;;;;18.10;99.90;;;;;;5050221;28;19909;-82
2022/03/27 10:46:27;;;;;;;;;;;18.90;99.90;;;;;;5057762;28;20464;-82
2022/03/27 10:49:08;;;;;;;;;;;19.60;99.90;;;;;;5058252;28;19984;-83
2022/03/27 10:51:34;;;;;;;;;;;20.00;99.90;;;;;;5058031;28;19909;-82
2022/03/27 10:54:04;;;;;;;;;;;20.30;99.90;;;;;;5058471;28;19908;-82
2022/03/27 10:56:33;;;;;;;;;;;20.40;99.90;;;;;;5057735;28;19963;-81
2022/03/27 10:59:21;;;;;;;;;;;20.60;99.90;;;;;;5056739;28;20027;-82
2022/03/27 11:01:54;;;;;;;;;;;21.00;99.90;;;;;;5049099;28;19909;-83
2022/03/27 11:04:21;;;;;;;;;;;21.60;99.90;;;;;;5060241;28;19955;-83
2022/03/27 11:06:48;;;;;;;;;;;22.60;99.90;;;;;;5061528;28;20012;-84
2022/03/27 11:09:30;;;;;;;;;;;23.70;99.90;;;;;;5059589;28;19909;-83
2022/03/27 11:11:57;;;;;;;;;;;24.10;99.90;;;;;;5058165;28;19909;-83
2022/03/27 11:14:42;;;;;;;;;;;24.30;99.90;;;;;;5056902;28;19940;-83
2022/03/27 11:17:12;;;;;;;;;;;24.00;99.90;;;;;;5050909;28;20390;-83
2022/03/27 11:19:42;;;;;;;;;;;25.40;99.90;;;;;;5060409;28;20432;-81
2022/03/27 11:22:27;;;;;;;;;;;25.80;99.90;;;;;;5059086;28;19913;-81
2022/03/27 11:25:12;;;;;;;;;;;26.30;99.90;;;;;;5059167;28;19915;-82
2022/03/27 11:27:57;;;;;;;;;;;27.80;99.90;;;;;;5058757;28;19909;-81
2022/03/27 11:30:23;;;;;;;;;;;28.20;99.90;;;;;;5056823;28;20373;-81
2022/03/27 11:33:07;;;;;;;;;;;28.40;99.90;;;;;;5039431;28;19941;-81
2022/03/27 11:35:33;;;;;;;;;;;28.70;99.90;;;;;;5039094;28;19914;-82
2022/03/27 11:38:17;;;;;;;;;;;29.00;99.90;;;;;;5039822;28;19909;-81
2022/03/27 11:40:42;;;;;;;;;;;29.30;99.90;;;;;;5038940;28;19910;-82
2022/03/27 11:43:34;;;;;;;;;;;29.90;99.90;;;;;;5037228;28;19909;-81
2022/03/27 11:46:00;;;;;;;;;;;30.10;99.90;;;;;;5035701;28;20004;-82
2022/03/27 11:48:26;;;;;;;;;;;30.40;99.90;;;;;;5038650;28;19952;-81
2022/03/27 11:50:53;;;;;;;;;;;30.80;99.90;;;;;;5037622;28;19909;-82
2022/03/27 11:53:28;;;;;;;;;;;31.30;99.90;;;;;;5051609;28;19909;-82
2022/03/27 11:56:03;;;;;;;;;;;31.40;99.90;;;;;;5056217;28;19980;-81
2022/03/27 11:58:28;;;;;;;;;;;31.30;99.90;;;;;;5055170;28;19978;-82
2022/03/27 12:01:01;;;;;;;;;;;31.40;99.90;;;;;;5057950;28;20012;-84
2022/03/27 12:03:26;;;;;;;;;;;31.20;99.90;;;;;;5055950;28;19988;-81
2022/03/27 12:05:53;;;;;;;;;;;30.70;99.90;;;;;;5055357;28;20011;-82
2022/03/27 12:08:19;;;;;;;;;;;31.00;99.90;;;;;;5055732;28;20380;-82
2022/03/27 12:10:56;;;;;;;;;;;30.50;99.90;;;;;;5057988;28;20024;-82
2022/03/27 12:13:21;;;;;;;;;;;30.70;99.90;;;;;;5060463;28;19917;-82
2022/03/27 12:15:52;;;;;;;;;;;30.50;99.90;;;;;;5053903;28;19920;-83
2022/03/27 12:18:27;;;;;;;;;;;30.60;99.90;;;;;;5042965;28;20035;-82
2022/03/27 12:20:52;;;;;;;;;;;30.70;99.90;;;;;;5043017;28;19977;-83
2022/03/27 12:23:19;;;;;;;;;;;31.00;99.90;;;;;;5043136;28;20294;-83
2022/03/27 12:25:55;;;;;;;;;;;31.10;99.90;;;;;;5041044;28;20321;-82
2022/03/27 12:31:17;;;;;;;;;;;31.50;99.90;;;;;;5041131;28;19967;-82
2022/03/27 12:33:42;;;;;;;;;;;31.60;99.90;;;;;;5039128;28;20351;-82
2022/03/27 12:36:10;;;;;;;;;;;31.30;99.90;;;;;;5033595;28;19967;-83
2022/03/27 12:38:36;;;;;;;;;;;31.10;99.90;;;;;;5042700;28;19913;-82
2022/03/27 12:41:02;;;;;;;;;;;31.10;99.90;;;;;;5048074;28;19910;-83
2022/03/27 12:43:28;;;;;;;;;;;31.00;99.90;;;;;;5046904;28;20000;-82
2022/03/27 12:45:55;;;;;;;;;;;31.00;99.90;;;;;;5051816;28;19943;-83
2022/03/27 12:48:23;;;;;;;;;;;31.20;99.90;;;;;;5055128;28;19944;-83
2022/03/27 12:50:51;;;;;;;;;;;31.50;99.90;;;;;;5046128;28;20488;-83
2022/03/27 12:53:22;;;;;;;;;;;31.60;99.90;;;;;;5045919;28;19977;-82
2022/03/27 12:55:48;;;;;;;;;;;30.90;99.90;;;;;;5046187;28;19924;-82
2022/03/27 12:58:18;;;;;;;;;;;30.90;99.90;;;;;;5046758;28;19910;-83
2022/03/27 13:00:45;;;;;;;;;;;30.80;99.90;;;;;;5046709;28;19909;-83
2022/03/27 13:03:20;;;;;;;;;;;30.80;99.90;;;;;;5055568;28;19913;-82
2022/03/27 13:05:56;;;;;;;;;;;30.80;99.90;;;;;;5064109;28;19940;-83
2022/03/27 13:08:32;;;;;;;;;;;30.90;99.90;;;;;;5062654;28;19955;-82
2022/03/27 13:10:59;;;;;;;;;;;30.90;99.90;;;;;;5062864;28;19916;-82
2022/03/27 13:13:44;;;;;;;;;;;30.90;99.90;;;;;;5060633;28;19909;-83
2022/03/27 13:16:17;;;;;;;;;;;30.90;99.90;;;;;;5061813;28;19913;-83
2022/03/27 13:18:42;;;;;;;;;;;30.80;99.90;;;;;;5062077;28;19974;-82
2022/03/27 13:21:14;;;;;;;;;;;30.60;99.90;;;;;;5061808;28;19935;-82
2022/03/27 13:23:40;;;;;;;;;;;30.50;99.90;;;;;;5061450;28;19916;-81
2022/03/27 13:26:05;;;;;;;;;;;30.50;99.90;;;;;;5058507;28;19909;-82
2022/03/27 13:28:31;;;;;;;;;;;30.30;99.90;;;;;;5056953;28;19909;-82
2022/03/27 13:30:56;;;;;;;;;;;29.50;99.90;;;;;;5050470;28;19959;-81
2022/03/27 13:33:23;;;;;;;;;;;29.10;99.90;;;;;;5037469;28;19913;-82
2022/03/27 13:35:49;;;;;;;;;;;29.10;99.90;;;;;;5038245;28;20301;-82
2022/03/27 13:38:15;;;;;;;;;;;28.70;99.90;;;;;;5038212;28;19917;-83
2022/03/27 13:43:25;;;;;;;;;;;28.60;99.90;;;;;;5037750;28;19920;-82
2022/03/27 13:45:50;;;;;;;;;;;28.10;99.90;;;;;;5039325;28;19913;-82
2022/03/27 13:48:16;;;;;;;;;;;27.50;99.90;;;;;;5038548;28;19917;-82
2022/03/27 13:50:41;;;;;;;;;;;27.40;99.90;;;;;;5038186;28;19960;-82
2022/03/27 13:53:07;;;;;;;;;;;27.50;99.90;;;;;;5037654;28;19920;-82
2022/03/27 13:55:32;;;;;;;;;;;27.90;99.90;;;;;;5038406;28;19920;-82
2022/03/27 13:58:01;;;;;;;;;;;28.00;99.90;;;;;;5052362;28;19916;-82
2022/03/27 14:00:28;;;;;;;;;;;28.30;99.90;;;;;;5058330;28;19952;-81
2022/03/27 14:02:53;;;;;;;;;;;28.30;99.90;;;;;;5058286;28;19912;-82
2022/03/27 14:05:18;;;;;;;;;;;28.30;99.90;;;;;;5058939;28;20011;-82
2022/03/27 14:07:44;;;;;;;;;;;28.40;99.90;;;;;;5061121;28;19924;-82
2022/03/27 14:10:09;;;;;;;;;;;28.20;99.90;;;;;;5062900;28;19928;-82
2022/03/27 14:12:35;;;;;;;;;;;28.30;99.90;;;;;;5063875;28;19913;-82
2022/03/27 14:15:02;;;;;;;;;;;28.50;99.90;;;;;;5062801;28;20385;-82
2022/03/27 14:17:27;;;;;;;;;;;28.40;99.90;;;;;;5061081;28;20000;-82
2022/03/27 14:19:53;;;;;;;;;;;28.20;99.90;;;;;;5049981;28;19952;-82
2022/03/27 14:22:18;;;;;;;;;;;27.80;99.90;;;;;;5061002;28;20020;-82
2022/03/27 14:24:48;;;;;;;;;;;27.60;99.90;;;;;;5058852;28;19912;-82
2022/03/27 14:27:14;;;;;;;;;;;27.20;99.90;;;;;;5061331;28;19976;-82
2022/03/27 14:29:39;;;;;;;;;;;26.80;99.90;;;;;;5061622;28;19935;-82
2022/03/27 14:32:05;;;;;;;;;;;26.60;99.90;;;;;;5060846;28;20007;-82
2022/03/27 14:34:31;;;;;;;;;;;26.40;99.90;;;;;;5056950;28;19909;-81
2022/03/27 14:36:56;;;;;;;;;;;26.30;99.90;;;;;;5051126;28;19959;-82